createdAt,value
2022-09-20T00:01:07.738Z,19.63
2022-09-20T00:02:21.075Z,19.64
2022-09-20T00:03:23.659Z,19.63
2022-09-20T00:04:37.135Z,19.63
2022-09-20T00:05:49.731Z,19.64
2022-09-20T00:06:53.218Z,19.62
2022-09-20T00:08:25.315Z,19.62
2022-09-20T00:09:18.649Z,19.62
2022-09-20T00:10:21.249Z,19.62
2022-09-20T00:11:34.619Z,19.62
2022-09-20T00:12:47.151Z,19.62
2022-09-20T00:14:00.596Z,19.62
2022-09-20T00:15:03.227Z,19.59
2022-09-20T00:16:16.683Z,19.62
2022-09-20T00:17:29.353Z,19.62
2022-09-20T00:18:32.585Z,19.62
2022-09-20T00:19:45.208Z,19.6
2022-09-20T00:20:59.101Z,19.63
2022-09-20T00:22:01.721Z,19.62
2022-09-20T00:23:15.138Z,19.59
2022-09-20T00:24:27.690Z,19.59
2022-09-20T00:25:42.095Z,19.59
2022-09-20T00:26:44.756Z,19.6
2022-09-20T00:27:58.101Z,19.6
2022-09-20T00:29:10.674Z,19.57
2022-09-20T00:30:24.079Z,19.59
2022-09-20T00:31:26.783Z,19.57
2022-09-20T00:32:40.097Z,19.6
2022-09-20T00:33:43.572Z,19.59
2022-09-20T00:34:57.112Z,19.59
2022-09-20T00:36:09.805Z,19.59
2022-09-20T00:37:16.597Z,19.56
2022-09-20T00:38:29.111Z,19.56
2022-09-20T00:39:42.619Z,19.56
2022-09-20T00:40:45.405Z,19.57
2022-09-20T00:41:59.081Z,19.57
2022-09-20T00:43:11.617Z,19.56
2022-09-20T00:44:15.132Z,19.59
2022-09-20T00:45:27.791Z,19.55
2022-09-20T00:46:41.601Z,19.53
2022-09-20T00:47:44.193Z,19.56
2022-09-20T00:48:57.696Z,19.53
2022-09-20T00:50:10.333Z,19.55
2022-09-20T00:51:23.594Z,19.52
2022-09-20T00:52:26.289Z,19.52
2022-09-20T00:53:39.589Z,19.5
2022-09-20T00:54:52.312Z,19.53
2022-09-20T00:55:55.610Z,19.52
2022-09-20T00:57:08.220Z,19.52
2022-09-20T00:58:21.635Z,19.5
2022-09-20T00:59:24.242Z,19.52
2022-09-20T01:00:37.600Z,19.49
2022-09-20T01:01:50.667Z,19.52
2022-09-20T01:03:04.111Z,19.49
2022-09-20T01:04:06.690Z,19.49
2022-09-20T01:05:20.089Z,19.53
2022-09-20T01:06:32.643Z,19.47
2022-09-20T01:07:36.082Z,19.49
2022-09-20T01:08:48.631Z,19.5
2022-09-20T01:10:02.113Z,19.5
2022-09-20T01:11:04.707Z,19.49
2022-09-20T01:12:18.106Z,19.49
2022-09-20T01:13:30.677Z,19.49
2022-09-20T01:14:44.393Z,19.47
2022-09-20T01:15:48.460Z,19.5
2022-09-20T01:17:02.421Z,19.5
2022-09-20T01:18:16.124Z,19.47
2022-09-20T01:19:19.647Z,19.47
2022-09-20T01:20:32.264Z,19.49
2022-09-20T01:21:45.599Z,19.47
2022-09-20T01:22:48.303Z,19.52
2022-09-20T01:24:01.724Z,19.5
2022-09-20T01:25:14.259Z,19.49
2022-09-20T01:26:17.613Z,19.5
2022-09-20T01:27:30.154Z,19.49
2022-09-20T01:28:45.114Z,19.46
2022-09-20T01:29:47.756Z,19.49
2022-09-20T01:31:01.106Z,19.46
2022-09-20T01:32:13.660Z,19.47
2022-09-20T01:33:17.110Z,19.47
2022-09-20T01:34:29.664Z,19.45
2022-09-20T01:35:43.128Z,19.47
2022-09-20T01:36:55.685Z,19.47
2022-09-20T01:37:59.154Z,19.45
2022-09-20T01:39:11.755Z,19.45
2022-09-20T01:40:25.184Z,19.45
2022-09-20T01:41:27.906Z,19.45
2022-09-20T01:42:41.113Z,19.42
2022-09-20T01:43:53.663Z,19.45
2022-09-20T01:45:07.111Z,19.43
2022-09-20T01:46:09.764Z,19.42
2022-09-20T01:47:23.201Z,19.43
2022-09-20T01:48:36.010Z,19.4
2022-09-20T01:49:39.634Z,19.43
2022-09-20T01:50:52.182Z,19.42
2022-09-20T01:52:05.605Z,19.42
2022-09-20T01:53:08.220Z,19.4
2022-09-20T01:54:21.610Z,19.43
2022-09-20T01:55:34.178Z,19.43
2022-09-20T01:56:47.637Z,19.42
2022-09-20T01:57:50.282Z,19.42
2022-09-20T01:59:22.732Z,19.39
2022-09-20T02:00:16.234Z,19.4
2022-09-20T02:01:18.893Z,19.39
2022-09-20T02:02:32.706Z,19.4
2022-09-20T02:03:45.331Z,19.42
2022-09-20T02:04:48.648Z,19.42
2022-09-20T02:06:01.389Z,19.4
2022-09-20T02:07:14.652Z,19.4
2022-09-20T02:08:27.220Z,19.4
2022-09-20T02:09:31.819Z,19.4
2022-09-20T02:10:44.383Z,19.4
2022-09-20T02:12:07.680Z,19.39
2022-09-20T02:13:00.425Z,19.4
2022-09-20T02:14:13.649Z,19.39
2022-09-20T02:15:26.245Z,19.4
2022-09-20T02:16:29.713Z,19.39
2022-09-20T02:17:42.336Z,19.39
2022-09-20T02:18:55.639Z,19.38
2022-09-20T02:20:08.194Z,19.4
2022-09-20T02:21:11.681Z,19.4
2022-09-20T02:22:24.259Z,19.38
2022-09-20T02:23:37.652Z,19.39
2022-09-20T02:24:40.291Z,19.39
2022-09-20T02:25:53.654Z,19.39
2022-09-20T02:27:06.242Z,19.4
2022-09-20T02:28:09.645Z,19.39
2022-09-20T02:29:22.226Z,19.39
2022-09-20T02:30:35.636Z,19.42
2022-09-20T02:31:48.294Z,19.4
2022-09-20T02:32:52.140Z,19.38
2022-09-20T02:34:04.751Z,19.39
2022-09-20T02:35:18.272Z,19.39
2022-09-20T02:36:20.942Z,19.39
2022-09-20T02:37:34.157Z,19.38
2022-09-20T02:38:47.578Z,19.39
2022-09-20T02:39:51.148Z,19.38
2022-09-20T02:41:03.964Z,19.38
2022-09-20T02:42:17.201Z,19.38
2022-09-20T02:43:19.813Z,19.36
2022-09-20T02:44:33.118Z,19.36
2022-09-20T02:45:45.742Z,19.38
2022-09-20T02:46:59.713Z,19.38
2022-09-20T02:48:02.322Z,19.36
2022-09-20T02:49:15.674Z,19.38
2022-09-20T02:50:28.222Z,19.39
2022-09-20T02:51:31.625Z,19.36
2022-09-20T02:52:44.503Z,19.39
2022-09-20T02:54:57.661Z,19.38
2022-09-20T03:14:28.638Z,19.87
2022-09-20T04:09:54.431Z,21.2
2022-09-20T04:14:44.099Z,21.23
2022-09-20T04:14:47.301Z,21.24
2022-09-20T04:15:30.002Z,21.24
2022-09-20T04:16:42.350Z,21.2
2022-09-20T04:17:55.609Z,21.17
2022-09-20T04:19:07.940Z,21.1
2022-09-20T04:20:20.597Z,21.04
2022-09-20T04:21:23.060Z,20.95
2022-09-20T04:22:36.100Z,20.82
2022-09-20T04:23:38.578Z,20.78
2022-09-20T04:24:52.087Z,20.66
2022-09-20T04:26:04.523Z,20.57
2022-09-20T04:27:18.086Z,20.49
2022-09-20T04:28:40.168Z,20.41
2022-09-20T04:29:33.589Z,20.34
2022-09-20T04:30:46.100Z,20.24
2022-09-20T04:31:53.828Z,20.18
2022-09-20T04:33:06.825Z,20.14
2022-09-20T04:34:11.182Z,20.1
2022-09-20T04:35:23.688Z,20.06
2022-09-20T04:40:38.355Z,19.98
2022-09-20T04:45:46.704Z,19.91
2022-09-20T04:45:59.877Z,20.21
2022-09-20T04:54:19.757Z,20.27
2022-09-20T04:55:41.950Z,20.65
2022-09-20T04:57:18.433Z,20.68
2022-09-20T04:58:25.179Z,20.73
2022-09-20T05:04:45.741Z,20.93
2022-09-20T05:06:17.880Z,20.96
2022-09-20T05:06:21.180Z,21.0
2022-09-20T05:06:55.105Z,21.03
2022-09-20T05:07:57.461Z,21.07
2022-09-20T05:09:10.859Z,21.19
2022-09-20T05:10:23.381Z,21.27
2022-09-20T05:11:36.627Z,21.36
2022-09-20T05:12:38.985Z,21.41
2022-09-20T05:13:52.134Z,21.46
2022-09-20T05:15:04.498Z,21.47
2022-09-20T05:16:17.146Z,21.53
2022-09-20T05:17:29.480Z,21.54
2022-09-20T05:18:32.624Z,21.58
2022-09-20T05:19:44.868Z,21.6
2022-09-20T05:20:48.078Z,21.67
2022-09-20T05:22:00.347Z,21.68
2022-09-20T05:23:13.593Z,21.68
2022-09-20T05:24:16.320Z,21.7
2022-09-20T05:25:29.655Z,21.74
2022-09-20T05:26:41.951Z,21.72
2022-09-20T05:27:55.109Z,21.78
2022-09-20T05:28:57.540Z,21.77
2022-09-20T05:30:10.642Z,21.78
2022-09-20T05:31:32.838Z,21.78
2022-09-20T05:32:26.108Z,21.8
2022-09-20T05:33:38.418Z,21.81
2022-09-20T05:34:51.611Z,21.84
2022-09-20T05:36:13.750Z,21.84
2022-09-20T05:37:07.101Z,21.84
2022-09-20T05:38:19.474Z,21.84
2022-09-20T05:39:32.611Z,21.84
2022-09-20T05:40:34.935Z,21.84
2022-09-20T05:41:48.082Z,21.85
2022-09-20T05:43:00.306Z,21.85
2022-09-20T05:44:13.634Z,21.85
2022-09-20T05:45:16.065Z,21.87
2022-09-20T05:46:29.078Z,21.84
2022-09-20T05:47:41.287Z,21.85
2022-09-20T05:48:44.627Z,21.87
2022-09-20T05:50:16.301Z,21.84
2022-09-20T05:51:09.652Z,21.87
2022-09-20T05:52:21.902Z,21.88
2022-09-20T05:53:25.129Z,21.87
2022-09-20T05:54:37.312Z,21.88
2022-09-20T05:55:50.105Z,21.9
2022-09-20T05:57:22.184Z,21.9
2022-09-20T05:58:05.598Z,21.9
2022-09-20T05:59:17.848Z,21.91
2022-09-20T06:00:50.809Z,21.92
2022-09-20T06:02:22.865Z,21.91
2022-09-20T06:02:44.859Z,21.95
2022-09-20T06:05:36.619Z,21.99
2022-09-20T06:05:49.783Z,21.99
2022-09-20T06:06:12.702Z,22.02
2022-09-20T06:07:24.922Z,22.08
2022-09-20T06:08:38.233Z,22.12
2022-09-20T06:09:50.556Z,22.15
2022-09-20T06:11:04.135Z,22.18
2022-09-20T06:12:06.523Z,22.19
2022-09-20T06:13:19.629Z,22.19
2022-09-20T06:14:21.942Z,22.18
2022-09-20T06:15:35.105Z,22.15
2022-09-20T06:17:37.820Z,22.13
2022-09-20T06:17:51.192Z,22.13
2022-09-20T06:19:03.385Z,22.09
2022-09-20T06:20:16.723Z,22.11
2022-09-20T06:21:29.716Z,22.09
2022-09-20T06:22:33.136Z,22.09
2022-09-20T06:24:05.232Z,22.06
2022-09-20T06:24:59.115Z,22.03
2022-09-20T06:26:01.413Z,22.03
2022-09-20T06:27:14.745Z,22.02
2022-09-20T06:28:26.998Z,22.01
2022-09-20T06:29:30.126Z,21.99
2022-09-20T06:30:42.483Z,21.95
2022-09-20T06:32:05.697Z,21.97
2022-09-20T06:33:08.398Z,21.94
2022-09-20T06:34:13.454Z,21.91
2022-09-20T06:35:25.821Z,21.9
2022-09-20T06:36:29.137Z,21.92
2022-09-20T06:37:41.374Z,21.9
2022-09-20T06:38:54.621Z,21.9
2022-09-20T06:40:06.882Z,21.92
2022-09-20T06:41:10.161Z,21.92
2022-09-20T06:42:26.464Z,21.92
2022-09-20T06:43:30.630Z,21.9
2022-09-20T06:44:53.798Z,21.9
2022-09-20T06:46:26.628Z,21.91
2022-09-20T06:46:59.379Z,21.91
2022-09-20T06:48:11.606Z,21.9
2022-09-20T06:49:24.839Z,21.92
2022-09-20T06:50:27.357Z,21.9
2022-09-20T06:51:40.680Z,21.91
2022-09-20T06:52:52.965Z,21.91
2022-09-20T06:54:06.215Z,21.91
2022-09-20T06:56:56.209Z,21.91
2022-09-20T06:57:28.980Z,21.9
2022-09-20T06:58:41.306Z,21.9
2022-09-20T06:59:54.546Z,21.92
2022-09-20T07:00:57.182Z,21.95
2022-09-20T07:02:11.183Z,21.94
2022-09-20T07:03:23.515Z,21.97
2022-09-20T07:04:26.556Z,21.95
2022-09-20T07:06:08.215Z,22.03
2022-09-20T07:06:51.598Z,22.01
2022-09-20T07:08:23.280Z,22.01
2022-09-20T07:09:06.693Z,22.05
2022-09-20T07:10:18.920Z,22.03
2022-09-20T07:11:32.594Z,22.03
2022-09-20T07:12:34.872Z,22.06
2022-09-20T07:13:48.063Z,22.06
2022-09-20T07:15:10.234Z,22.08
2022-09-20T07:16:24.152Z,22.08
2022-09-20T07:18:25.831Z,22.06
2022-09-20T07:18:58.183Z,22.08
2022-09-20T07:20:02.696Z,22.11
2022-09-20T07:22:16.092Z,22.16
2022-09-20T07:22:38.966Z,22.21
2022-09-20T07:25:10.882Z,22.26
2022-09-20T07:27:31.490Z,22.33
2022-09-20T07:27:34.605Z,22.5
2022-09-20T07:27:56.993Z,22.6
2022-09-20T07:29:39.549Z,22.69
2022-09-20T07:30:12.245Z,22.74
2022-09-20T07:31:24.156Z,22.8
2022-09-20T07:32:57.062Z,22.83
2022-09-20T07:33:39.625Z,22.84
2022-09-20T07:36:00.691Z,22.84
2022-09-20T07:37:02.870Z,22.83
2022-09-20T07:38:15.663Z,22.83
2022-09-20T07:39:27.790Z,22.79
2022-09-20T07:40:40.645Z,22.74
2022-09-20T07:41:42.986Z,22.72
2022-09-20T07:42:56.380Z,22.7
2022-09-20T07:44:08.665Z,22.64
2022-09-20T07:45:21.667Z,22.63
2022-09-20T07:46:23.937Z,22.6
2022-09-20T07:47:36.670Z,22.59
2022-09-20T07:48:48.729Z,22.56
2022-09-20T07:49:51.713Z,22.54
2022-09-20T07:51:08.024Z,22.54
2022-09-20T07:52:12.307Z,22.54
2022-09-20T07:53:24.598Z,22.53
2022-09-20T07:54:47.158Z,22.53
2022-09-20T07:55:39.563Z,22.49
2022-09-20T07:56:52.675Z,22.52
2022-09-20T07:58:04.870Z,22.52
2022-09-20T07:59:17.673Z,22.5
2022-09-20T08:00:19.749Z,22.52
2022-09-20T08:01:32.740Z,22.52
2022-09-20T08:02:44.916Z,22.52
2022-09-20T08:03:57.682Z,22.52
2022-09-20T08:04:59.950Z,22.48
2022-09-20T08:06:13.168Z,22.5
2022-09-20T08:07:25.617Z,22.5
2022-09-20T08:08:28.657Z,22.5
2022-09-20T08:09:40.881Z,22.49
2022-09-20T08:10:57.197Z,22.5
2022-09-20T08:11:59.470Z,22.52
2022-09-20T08:14:24.963Z,22.5
2022-09-20T08:15:27.186Z,22.53
2022-09-20T08:16:40.309Z,22.53
2022-09-20T08:17:52.596Z,22.54
2022-09-20T08:19:05.702Z,22.56
2022-09-20T08:20:07.988Z,22.54
2022-09-20T08:21:20.647Z,22.57
2022-09-20T08:23:12.588Z,22.57
2022-09-20T08:23:45.270Z,22.57
2022-09-20T08:24:47.574Z,22.56
2022-09-20T08:26:11.475Z,22.59
2022-09-20T08:27:13.768Z,22.59
2022-09-20T08:28:16.676Z,22.64
2022-09-20T08:29:28.753Z,22.63
2022-09-20T08:30:42.478Z,22.63
2022-09-20T08:31:44.780Z,22.64
2022-09-20T08:32:57.699Z,22.62
2022-09-20T08:34:09.815Z,22.62
2022-09-20T08:35:32.169Z,22.64
2022-09-20T08:36:24.609Z,22.63
2022-09-20T08:37:47.726Z,22.63
2022-09-20T08:40:04.208Z,22.63
2022-09-20T08:41:06.765Z,22.64
2022-09-20T08:42:20.185Z,22.64
2022-09-20T08:43:32.305Z,22.64
2022-09-20T08:44:35.517Z,22.62
2022-09-20T08:45:48.054Z,22.64
2022-09-20T08:47:01.202Z,22.63
2022-09-20T08:48:03.559Z,22.64
2022-09-20T08:49:16.892Z,22.64
2022-09-20T08:50:29.080Z,22.63
2022-09-20T08:51:42.201Z,22.66
2022-09-20T08:52:45.198Z,22.67
2022-09-20T08:53:58.213Z,22.7
2022-09-20T08:55:10.395Z,22.67
2022-09-20T08:56:13.223Z,22.72
2022-09-20T08:57:25.332Z,22.73
2022-09-20T08:58:38.182Z,22.73
2022-09-20T08:59:50.450Z,22.72
2022-09-20T09:00:53.788Z,22.79
2022-09-20T09:02:06.175Z,22.8
2022-09-20T09:03:19.220Z,22.81
2022-09-20T09:04:21.473Z,22.84
2022-09-20T09:05:34.195Z,22.86
2022-09-20T09:06:46.338Z,22.88
2022-09-20T09:07:59.232Z,22.87
2022-09-20T09:09:01.534Z,22.88
2022-09-20T09:10:14.203Z,22.96
2022-09-20T09:11:26.272Z,22.96
2022-09-20T09:12:39.201Z,22.99
2022-09-20T09:13:41.462Z,23.03
2022-09-20T09:14:54.214Z,23.03
2022-09-20T09:16:06.516Z,23.04
2022-09-20T09:17:19.319Z,23.07
2022-09-20T09:18:21.684Z,23.1
2022-09-20T09:19:34.712Z,23.14
2022-09-20T09:20:46.783Z,23.13
2022-09-20T09:21:59.705Z,23.18
2022-09-20T09:23:01.919Z,23.2
2022-09-20T09:24:14.707Z,23.2
2022-09-20T09:25:26.951Z,23.24
2022-09-20T09:26:39.736Z,23.24
2022-09-20T09:27:42.014Z,23.27
2022-09-20T09:28:54.711Z,23.27
2022-09-20T09:30:06.929Z,23.27
2022-09-20T09:31:09.732Z,23.27
2022-09-20T09:32:21.780Z,23.28
2022-09-20T09:33:34.747Z,23.28
2022-09-20T09:34:46.821Z,23.3
2022-09-20T09:35:49.708Z,23.34
2022-09-20T09:37:01.843Z,23.37
2022-09-20T09:38:14.689Z,23.38
2022-09-20T09:39:26.754Z,23.39
2022-09-20T09:40:30.294Z,23.41
2022-09-20T09:41:56.842Z,23.47
2022-09-20T09:42:49.281Z,23.47
2022-09-20T09:44:02.305Z,23.51
2022-09-20T09:45:14.485Z,23.54
2022-09-20T09:46:17.394Z,23.58
2022-09-20T09:47:29.539Z,23.61
2022-09-20T09:48:42.275Z,23.64
2022-09-20T09:49:59.026Z,23.65
2022-09-20T09:51:03.286Z,23.69
2022-09-20T09:52:15.289Z,23.69
2022-09-20T09:53:18.323Z,23.74
2022-09-20T09:54:30.425Z,23.74
2022-09-20T09:55:43.322Z,23.76
2022-09-20T09:56:46.529Z,23.78
2022-09-20T09:57:59.332Z,23.82
2022-09-20T09:59:11.385Z,23.85
2022-09-20T10:00:24.369Z,23.85
2022-09-20T10:01:30.032Z,23.86
2022-09-20T10:02:36.357Z,23.86
2022-09-20T10:03:48.538Z,23.9
2022-09-20T10:05:01.298Z,23.92
2022-09-20T10:06:13.367Z,23.95
2022-09-20T10:07:16.289Z,23.95
2022-09-20T10:08:28.354Z,23.98
2022-09-20T10:10:00.811Z,23.96
2022-09-20T10:10:53.195Z,23.99
2022-09-20T10:11:55.332Z,23.99
2022-09-20T10:13:08.335Z,24.03
2022-09-20T10:14:20.386Z,24.02
2022-09-20T10:15:33.322Z,24.05
2022-09-20T10:16:35.544Z,24.05
2022-09-20T10:17:48.340Z,24.06
2022-09-20T10:19:00.472Z,24.03
2022-09-20T10:20:03.326Z,24.06
2022-09-20T10:21:15.362Z,24.05
2022-09-20T10:22:28.340Z,24.06
2022-09-20T10:24:01.958Z,24.05
2022-09-20T10:24:49.820Z,24.03
2022-09-20T10:26:32.894Z,24.07
2022-09-20T10:27:06.357Z,24.07
2022-09-20T10:28:18.556Z,24.09
2022-09-20T10:29:21.331Z,24.07
2022-09-20T10:30:33.337Z,24.1
2022-09-20T10:31:46.341Z,24.11
2022-09-20T10:32:58.421Z,24.11
2022-09-20T10:34:01.391Z,24.14
2022-09-20T10:35:13.908Z,24.13
2022-09-20T10:36:27.325Z,24.13
2022-09-20T10:37:49.473Z,24.14
2022-09-20T10:38:42.852Z,24.13
2022-09-20T10:39:54.898Z,24.14
2022-09-20T10:41:07.826Z,24.13
2022-09-20T10:42:10.021Z,24.11
2022-09-20T10:43:22.948Z,24.13
2022-09-20T10:44:35.049Z,24.13
2022-09-20T10:46:31.835Z,24.14
2022-09-20T10:46:56.042Z,24.16
2022-09-20T10:47:58.252Z,24.16
2022-09-20T10:49:10.831Z,24.22
2022-09-20T10:50:42.767Z,24.22
2022-09-20T10:51:36.118Z,24.25
2022-09-20T10:52:38.320Z,24.26
2022-09-20T10:53:51.320Z,24.3
2022-09-20T10:55:03.993Z,24.32
2022-09-20T10:56:06.860Z,24.32
2022-09-20T10:57:18.910Z,24.32
2022-09-20T10:58:31.872Z,24.32
2022-09-20T10:59:43.881Z,24.32
2022-09-20T11:00:56.509Z,24.32
2022-09-20T11:02:08.703Z,24.3
2022-09-20T11:03:11.862Z,24.34
2022-09-20T11:04:23.880Z,24.33
2022-09-20T11:05:26.826Z,24.36
2022-09-20T11:06:38.838Z,24.39
2022-09-20T11:07:51.870Z,24.39
2022-09-20T11:08:54.241Z,24.39
2022-09-20T11:10:07.350Z,24.41
2022-09-20T11:11:19.376Z,24.4
2022-09-20T11:12:32.364Z,24.4
2022-09-20T11:13:34.516Z,24.41
2022-09-20T11:14:57.352Z,24.43
2022-09-20T11:15:59.513Z,24.46
2022-09-20T11:17:12.524Z,24.46
2022-09-20T11:18:14.704Z,24.49
2022-09-20T11:19:27.925Z,24.46
2022-09-20T11:20:40.129Z,24.47
2022-09-20T11:21:42.860Z,24.47
2022-09-20T11:22:54.805Z,24.47
2022-09-20T11:24:11.485Z,24.51
2022-09-20T11:25:29.740Z,24.5
2022-09-20T11:26:22.392Z,24.53
2022-09-20T11:27:35.421Z,24.51
2022-09-20T11:28:47.411Z,24.53
2022-09-20T11:30:00.424Z,24.56
2022-09-20T11:31:02.516Z,24.57
2022-09-20T11:32:15.504Z,24.58
2022-09-20T11:33:27.637Z,24.63
2022-09-20T11:34:40.874Z,24.64
2022-09-20T11:35:42.953Z,24.71
2022-09-20T11:36:55.873Z,24.74
2022-09-20T11:38:07.859Z,24.81
2022-09-20T11:39:10.925Z,24.85
2022-09-20T11:40:22.975Z,24.91
2022-09-20T11:41:35.882Z,24.97
2022-09-20T11:42:47.780Z,25.01
2022-09-20T11:43:50.368Z,25.04
2022-09-20T11:45:02.308Z,25.09
2022-09-20T11:46:14.957Z,25.12
2022-09-20T11:47:52.734Z,25.18
2022-09-20T11:48:36.890Z,25.18
2022-09-20T11:49:39.003Z,25.22
2022-09-20T11:50:51.880Z,25.21
2022-09-20T11:52:03.845Z,25.22
2022-09-20T11:53:16.408Z,25.22
2022-09-20T11:54:28.085Z,25.22
2022-09-20T11:55:31.006Z,25.26
2022-09-20T11:56:42.990Z,25.25
2022-09-20T11:57:55.895Z,25.28
2022-09-20T11:58:57.953Z,25.32
2022-09-20T12:00:11.166Z,25.32
2022-09-20T12:01:27.973Z,25.35
2022-09-20T12:02:31.557Z,25.32
2022-09-20T12:03:43.620Z,25.38
2022-09-20T12:04:46.519Z,25.36
2022-09-20T12:05:58.445Z,25.4
2022-09-20T12:07:15.634Z,25.45
2022-09-20T12:08:19.699Z,25.48
2022-09-20T12:09:32.418Z,25.51
2022-09-20T12:10:34.513Z,25.55
2022-09-20T12:11:47.444Z,25.6
2022-09-20T12:12:59.358Z,25.6
2022-09-20T12:14:11.917Z,25.65
2022-09-20T12:15:13.986Z,25.66
2022-09-20T12:16:26.450Z,25.7
2022-09-20T12:17:38.490Z,25.73
2022-09-20T12:18:51.428Z,25.76
2022-09-20T12:19:53.426Z,25.77
2022-09-20T12:21:25.921Z,25.8
2022-09-20T12:22:18.168Z,25.83
2022-09-20T12:23:30.925Z,25.83
2022-09-20T12:24:32.947Z,25.87
2022-09-20T12:25:45.436Z,25.84
2022-09-20T12:26:57.273Z,25.86
2022-09-20T12:28:09.914Z,25.84
2022-09-20T12:29:12.227Z,25.83
2022-09-20T12:30:24.910Z,25.8
2022-09-20T12:31:36.809Z,25.82
2022-09-20T12:32:49.914Z,25.77
2022-09-20T12:33:51.997Z,25.72
2022-09-20T12:35:04.902Z,25.73
2022-09-20T12:36:16.817Z,25.69
2022-09-20T12:37:40.478Z,25.65
2022-09-20T12:39:41.253Z,25.63
2022-09-20T12:40:03.916Z,25.62
2022-09-20T12:40:56.233Z,25.62
2022-09-20T12:41:58.963Z,25.6
2022-09-20T12:43:10.937Z,25.63
2022-09-20T12:44:23.469Z,25.63
2022-09-20T12:45:35.420Z,25.59
2022-09-20T12:46:38.470Z,25.59
2022-09-20T12:47:50.494Z,25.56
2022-09-20T12:49:03.460Z,25.56
2022-09-20T12:50:15.380Z,25.51
2022-09-20T12:51:57.486Z,25.46
2022-09-20T12:52:30.050Z,25.43
2022-09-20T12:53:41.977Z,25.42
2022-09-20T12:54:55.641Z,25.4
2022-09-20T12:56:00.553Z,25.38
2022-09-20T12:57:13.974Z,25.36
2022-09-20T12:58:16.018Z,25.33
2022-09-20T12:59:28.483Z,25.32
2022-09-20T13:00:40.294Z,25.31
2022-09-20T13:01:53.540Z,25.31
2022-09-20T13:02:55.888Z,25.26
2022-09-20T13:04:08.535Z,25.25
2022-09-20T13:05:20.715Z,25.25
2022-09-20T13:06:23.461Z,25.23
2022-09-20T13:07:38.783Z,25.23
2022-09-20T13:08:44.442Z,25.18
2022-09-20T13:09:56.485Z,25.18
2022-09-20T13:11:09.457Z,25.12
2022-09-20T13:12:21.480Z,25.12
2022-09-20T13:13:24.452Z,25.12
2022-09-20T13:14:36.522Z,25.09
2022-09-20T13:15:49.452Z,25.09
2022-09-20T13:16:51.595Z,25.07
2022-09-20T13:18:04.502Z,25.02
2022-09-20T13:19:16.592Z,25.02
2022-09-20T13:20:29.463Z,25.04
2022-09-20T13:21:31.561Z,25.04
2022-09-20T13:22:44.461Z,25.04
2022-09-20T13:23:56.494Z,25.02
2022-09-20T13:25:09.481Z,25.01
2022-09-20T13:26:11.663Z,25.07
2022-09-20T13:27:24.447Z,25.11
2022-09-20T13:28:36.468Z,25.16
2022-09-20T13:29:49.444Z,25.26
2022-09-20T13:31:01.128Z,25.35
2022-09-20T13:32:03.946Z,25.43
2022-09-20T13:33:15.881Z,25.51
2022-09-20T13:34:18.961Z,25.58
2022-09-20T13:35:30.888Z,25.56
2022-09-20T13:36:43.532Z,25.59
2022-09-20T13:37:55.485Z,25.59
2022-09-20T13:38:58.471Z,25.58
2022-09-20T13:40:10.448Z,25.53
2022-09-20T13:41:23.467Z,25.53
2022-09-20T13:42:35.398Z,25.55
2022-09-20T13:43:47.989Z,25.55
2022-09-20T13:44:50.060Z,25.55
2022-09-20T13:46:02.982Z,25.63
2022-09-20T13:47:15.065Z,25.69
2022-09-20T13:48:18.007Z,25.74
2022-09-20T13:49:29.894Z,25.79
2022-09-20T13:50:47.164Z,25.86
2022-09-20T13:51:51.182Z,25.93
2022-09-20T13:53:03.983Z,25.98
2022-09-20T13:54:05.991Z,26.04
2022-09-20T13:55:18.874Z,26.11
2022-09-20T13:56:30.762Z,26.17
2022-09-20T13:57:33.476Z,26.23
2022-09-20T13:58:45.377Z,26.24
2022-09-20T13:59:58.488Z,26.24
2022-09-20T14:01:10.358Z,26.25
2022-09-20T14:02:13.545Z,26.24
2022-09-20T14:03:25.459Z,26.23
2022-09-20T14:04:38.006Z,26.2
2022-09-20T14:05:49.902Z,26.13
2022-09-20T14:06:52.975Z,26.11
2022-09-20T14:08:04.850Z,26.1
2022-09-20T14:09:17.471Z,26.07
2022-09-20T14:10:29.377Z,26.03
2022-09-20T14:11:32.082Z,26.0
2022-09-20T14:12:44.075Z,25.97
2022-09-20T14:13:56.978Z,25.93
2022-09-20T14:14:59.073Z,25.91
2022-09-20T14:16:11.992Z,25.87
2022-09-20T14:17:23.973Z,25.87
2022-09-20T14:18:37.003Z,25.87
2022-09-20T14:19:39.033Z,25.86
2022-09-20T14:20:51.982Z,25.83
2022-09-20T14:22:03.930Z,25.79
2022-09-20T14:23:26.478Z,25.77
2022-09-20T14:24:18.690Z,25.73
2022-09-20T14:25:31.519Z,25.72
2022-09-20T14:26:43.549Z,25.69
2022-09-20T14:27:56.493Z,25.65
2022-09-20T14:28:58.619Z,25.59
2022-09-20T14:30:11.473Z,25.58
2022-09-20T14:31:23.516Z,25.53
2022-09-20T14:32:26.509Z,25.48
2022-09-20T14:33:38.461Z,25.46
2022-09-20T14:34:50.981Z,25.43
2022-09-20T14:36:03.171Z,25.39
2022-09-20T14:37:05.973Z,25.36
2022-09-20T14:38:17.941Z,25.32
2022-09-20T14:39:30.497Z,25.32
2022-09-20T14:40:43.336Z,25.31
2022-09-20T14:41:46.010Z,25.28
2022-09-20T14:42:57.954Z,25.23
2022-09-20T14:44:20.503Z,25.25
2022-09-20T14:45:22.783Z,25.21
2022-09-20T14:46:26.499Z,25.19
2022-09-20T14:47:38.513Z,25.21
2022-09-20T14:48:51.483Z,25.21
2022-09-20T14:49:53.646Z,25.21
2022-09-20T14:51:06.486Z,25.21
2022-09-20T14:52:18.486Z,25.21
2022-09-20T14:53:31.037Z,25.23
2022-09-20T14:54:42.776Z,25.21
2022-09-20T14:55:46.005Z,25.19
2022-09-20T14:56:58.000Z,25.21
2022-09-20T14:58:11.092Z,25.19
2022-09-20T14:59:13.226Z,25.19
2022-09-20T15:00:26.053Z,25.15
2022-09-20T15:01:38.156Z,25.14
2022-09-20T15:02:41.207Z,25.14
2022-09-20T15:03:53.265Z,25.12
2022-09-20T15:05:05.996Z,25.11
2022-09-20T15:06:18.010Z,25.08
2022-09-20T15:07:21.043Z,25.07
2022-09-20T15:08:32.987Z,25.07
2022-09-20T15:09:45.993Z,25.04
2022-09-20T15:10:57.972Z,25.02
2022-09-20T15:12:01.024Z,25.0
2022-09-20T15:13:13.241Z,25.0
2022-09-20T15:14:25.994Z,25.0
2022-09-20T15:15:28.146Z,24.97
2022-09-20T15:16:41.068Z,24.95
2022-09-20T15:17:53.194Z,24.97
2022-09-20T15:19:06.218Z,24.94
2022-09-20T15:20:08.607Z,24.9
2022-09-20T15:21:41.548Z,24.94
2022-09-20T15:22:33.808Z,24.92
2022-09-20T15:23:46.497Z,24.88
2022-09-20T15:24:48.670Z,24.9
2022-09-20T15:26:01.557Z,24.91
2022-09-20T15:27:13.591Z,24.9
2022-09-20T15:28:26.035Z,24.85
2022-09-20T15:29:28.157Z,24.85
2022-09-20T15:30:41.025Z,24.84
2022-09-20T15:31:53.042Z,24.81
2022-09-20T15:32:58.636Z,24.8
2022-09-20T15:34:14.404Z,24.78
2022-09-20T15:35:17.525Z,24.77
2022-09-20T15:36:29.564Z,24.78
2022-09-20T15:37:42.504Z,24.77
2022-09-20T15:38:44.706Z,24.77
2022-09-20T15:39:57.688Z,24.74
2022-09-20T15:41:09.839Z,24.72
2022-09-20T15:42:22.533Z,24.7
2022-09-20T15:43:24.652Z,24.7
2022-09-20T15:44:37.533Z,24.7
2022-09-20T15:45:49.632Z,24.67
2022-09-20T15:47:02.541Z,24.64
2022-09-20T15:48:04.762Z,24.65
2022-09-20T15:49:17.571Z,24.63
2022-09-20T15:50:29.609Z,24.61
2022-09-20T15:51:42.515Z,24.58
2022-09-20T15:52:44.723Z,24.58
2022-09-20T15:53:57.528Z,24.57
2022-09-20T15:55:09.582Z,24.54
2022-09-20T15:56:13.001Z,24.51
2022-09-20T15:57:24.846Z,24.5
2022-09-20T15:58:37.510Z,24.5
2022-09-20T15:59:49.580Z,24.47
2022-09-20T16:00:52.571Z,24.49
2022-09-20T16:02:04.779Z,24.43
2022-09-20T16:03:18.020Z,24.41
2022-09-20T16:04:20.176Z,24.37
2022-09-20T16:05:33.014Z,24.39
2022-09-20T16:06:45.032Z,24.36
2022-09-20T16:07:58.029Z,24.34
2022-09-20T16:09:00.188Z,24.34
2022-09-20T16:10:13.017Z,24.33
2022-09-20T16:11:25.046Z,24.29
2022-09-20T16:12:38.047Z,24.32
2022-09-20T16:13:40.332Z,24.29
2022-09-20T16:14:54.063Z,24.29
2022-09-20T16:16:06.155Z,24.27
2022-09-20T16:17:11.045Z,24.23
2022-09-20T16:18:24.301Z,24.23
2022-09-20T16:19:39.061Z,24.22
2022-09-20T16:20:41.308Z,24.22
2022-09-20T16:21:57.807Z,24.2
2022-09-20T16:23:00.967Z,24.19
2022-09-20T16:24:14.227Z,24.17
2022-09-20T16:25:16.594Z,24.19
2022-09-20T16:26:29.514Z,24.17
2022-09-20T16:27:41.626Z,24.14
2022-09-20T16:28:54.549Z,24.13
2022-09-20T16:29:56.761Z,24.13
2022-09-20T16:31:09.556Z,24.09
2022-09-20T16:32:21.664Z,24.07
2022-09-20T16:33:34.539Z,24.07
2022-09-20T16:34:36.793Z,24.06
2022-09-20T16:35:49.542Z,24.06
2022-09-20T16:37:01.636Z,24.05
2022-09-20T16:38:04.545Z,24.05
2022-09-20T16:39:16.591Z,24.03
2022-09-20T16:40:29.612Z,24.02
2022-09-20T16:41:41.960Z,24.0
2022-09-20T16:42:48.929Z,23.99
2022-09-20T16:43:53.963Z,23.98